Terminal Aerodrome Forecast
Issued by NWS Twin Cities, MN

Home | Current Version | Previous Version | Graphics & Text | Print | Product List | Glossary On
Versions: 1 2 3 4 5 6 7 8 9 10 11 12 13 14 15 16 17 18 19 20 21 22 23 24 25 26 27 28 29 30
518
FTUS43 KMPX 272101 AAC
TAFMSP
TAF AMD
KMSP 272101Z 2721/2824 01007KT 6SM -SHRA BR SCT012 BKN025 OVC050
     FM280200 03005KT P6SM FEW012 SCT025 BKN035
     FM280800 07003KT 6SM BR SCT015 OVC040
     FM281100 06004KT 5SM -SHRA BR SCT015 OVC025
     FM281600 07006KT P6SM OVC025
     FM281900 24006KT P6SM BKN040=

USA.gov is the U.S. government's official web portal to all federal, state and local government web resources and services.